createdAt,value
2018-09-14T00:01:45.370Z,4.22
2018-09-14T00:04:13.522Z,4.03
2018-09-14T00:06:41.766Z,4.03
2018-09-14T00:09:14.186Z,3.83
2018-09-14T00:11:42.886Z,3.72
2018-09-14T00:14:11.199Z,3.87
2018-09-14T00:16:39.390Z,4.00
2018-09-14T00:19:07.667Z,4.10
2018-09-14T00:21:36.099Z,3.62
2018-09-14T00:24:04.339Z,3.58
2018-09-14T00:26:32.570Z,3.75
2018-09-14T00:29:00.770Z,4.10
2018-09-14T00:31:29.011Z,3.90
2018-09-14T00:33:57.239Z,4.40
2018-09-14T00:36:25.426Z,3.42
2018-09-14T00:38:53.665Z,3.77
2018-09-14T00:41:21.995Z,3.70
2018-09-14T00:43:50.316Z,3.92
2018-09-14T00:46:18.466Z,4.08
2018-09-14T00:48:46.759Z,3.67
2018-09-14T00:51:15.006Z,4.20
2018-09-14T00:53:43.302Z,3.98
2018-09-14T00:56:11.527Z,4.25
2018-09-14T00:58:39.706Z,3.90
2018-09-14T01:01:07.986Z,3.77
2018-09-14T01:03:36.170Z,4.17
2018-09-14T01:06:04.446Z,4.25
2018-09-14T01:08:32.667Z,4.30
2018-09-14T01:11:00.856Z,4.50
2018-09-14T01:16:19.666Z,4.87
2018-09-14T01:18:47.881Z,4.85
2018-09-14T01:21:16.095Z,5.67
2018-09-14T01:23:44.302Z,5.45
2018-09-14T01:26:12.542Z,5.22
2018-09-14T01:28:40.770Z,5.80
2018-09-14T01:31:08.966Z,5.80
2018-09-14T01:33:37.146Z,5.60
2018-09-14T01:36:12.299Z,5.92
2018-09-14T01:38:41.202Z,6.12
2018-09-14T01:41:09.870Z,5.90
2018-09-14T01:43:38.187Z,6.20
2018-09-14T01:46:06.627Z,5.78
2018-09-14T01:48:34.852Z,5.55
2018-09-14T01:51:03.080Z,6.22
2018-09-14T01:53:31.296Z,6.17
2018-09-14T01:55:59.511Z,6.25
2018-09-14T01:58:27.702Z,6.40
2018-09-14T02:00:55.918Z,6.92
2018-09-14T02:03:24.276Z,6.78
2018-09-14T02:05:52.462Z,7.12
2018-09-14T02:08:20.667Z,7.55
2018-09-14T02:10:48.914Z,7.25
2018-09-14T02:13:17.171Z,8.10
2018-09-14T02:15:45.395Z,8.00
2018-09-14T02:18:13.623Z,7.78
2018-09-14T02:20:41.839Z,8.08
2018-09-14T02:23:10.095Z,8.93
2018-09-14T02:25:38.323Z,10.05
2018-09-14T02:28:06.747Z,9.93
2018-09-14T02:30:34.946Z,10.38
2018-09-14T02:33:03.246Z,10.38
2018-09-14T02:35:31.445Z,10.75
2018-09-14T02:37:59.687Z,10.00
2018-09-14T02:40:28.018Z,10.70
2018-09-14T02:42:56.334Z,11.18
2018-09-14T02:45:24.531Z,10.80
2018-09-14T02:47:52.726Z,11.10
2018-09-14T02:50:20.970Z,11.68
2018-09-14T02:52:49.235Z,11.48
2018-09-14T02:55:17.512Z,11.83
2018-09-14T02:57:45.707Z,12.03
2018-09-14T03:00:14.049Z,12.88
2018-09-14T03:02:42.212Z,13.62
2018-09-14T03:05:10.891Z,13.03
2018-09-14T03:07:39.092Z,14.25
2018-09-14T03:10:07.348Z,13.50
2018-09-14T03:12:35.528Z,13.68
2018-09-14T03:15:03.767Z,14.00
2018-09-14T03:17:32.003Z,14.20
2018-09-14T03:20:00.206Z,14.18
2018-09-14T03:22:28.532Z,14.33
2018-09-14T03:24:56.821Z,13.93
2018-09-14T03:27:25.011Z,15.43
2018-09-14T03:29:53.251Z,15.95
2018-09-14T03:32:21.568Z,15.43
2018-09-14T03:34:49.724Z,14.00
2018-09-14T03:37:17.974Z,14.95
2018-09-14T03:39:46.267Z,13.10
2018-09-14T03:42:14.479Z,15.28
2018-09-14T03:44:42.776Z,14.10
2018-09-14T03:47:11.088Z,14.30
2018-09-14T03:49:39.426Z,13.68
2018-09-14T03:52:07.736Z,13.90
2018-09-14T03:54:35.938Z,13.85
2018-09-14T03:57:04.943Z,13.83
2018-09-14T03:59:35.286Z,13.60
2018-09-14T04:02:03.985Z,13.70
2018-09-14T04:04:32.203Z,13.35
2018-09-14T04:07:00.624Z,14.15
2018-09-14T04:09:29.163Z,15.20
2018-09-14T04:11:57.452Z,15.05
2018-09-14T04:14:25.754Z,13.85
2018-09-14T04:16:53.962Z,15.48
2018-09-14T04:19:22.303Z,15.10
2018-09-14T04:21:50.627Z,15.15
2018-09-14T04:24:18.891Z,14.70
2018-09-14T04:26:53.801Z,15.68
2018-09-14T04:29:22.038Z,15.48
2018-09-14T04:31:50.338Z,14.75
2018-09-14T04:34:18.611Z,15.48
2018-09-14T04:36:46.827Z,15.72
2018-09-14T04:39:15.035Z,15.70
2018-09-14T04:41:43.311Z,15.18
2018-09-14T04:44:11.597Z,15.03
2018-09-14T04:46:39.788Z,15.18
2018-09-14T04:49:08.087Z,15.58
2018-09-14T04:51:36.359Z,15.83
2018-09-14T04:54:04.602Z,16.27
2018-09-14T04:56:32.847Z,15.28
2018-09-14T04:59:01.186Z,15.68
2018-09-14T05:01:29.450Z,15.80
2018-09-14T05:03:57.732Z,16.40
2018-09-14T05:06:25.969Z,16.82
2018-09-14T05:08:54.265Z,17.35
2018-09-14T05:11:22.519Z,16.93
2018-09-14T05:13:50.746Z,15.63
2018-09-14T05:16:19.009Z,16.12
2018-09-14T05:18:47.266Z,15.45
2018-09-14T05:21:15.552Z,16.32
2018-09-14T05:23:43.847Z,16.82
2018-09-14T05:26:12.083Z,16.32
2018-09-14T05:28:40.331Z,15.75
2018-09-14T05:31:08.535Z,16.15
2018-09-14T05:33:37.158Z,16.10
2018-09-14T05:36:05.463Z,16.60
2018-09-14T05:38:34.048Z,15.83
2018-09-14T05:41:02.406Z,15.55
2018-09-14T05:43:30.769Z,16.40
2018-09-14T05:45:59.059Z,15.78
2018-09-14T05:48:27.325Z,15.28
2018-09-14T05:50:55.583Z,15.80
2018-09-14T05:53:23.873Z,15.18
2018-09-14T05:55:52.137Z,14.18
2018-09-14T05:58:20.361Z,15.60
2018-09-14T06:00:48.628Z,14.20
2018-09-14T06:03:16.883Z,13.65
2018-09-14T06:05:45.179Z,14.03
2018-09-14T06:08:13.453Z,14.07
2018-09-14T06:10:41.696Z,13.93
2018-09-14T06:13:09.981Z,13.32
2018-09-14T06:15:38.218Z,13.13
2018-09-14T06:18:06.810Z,13.25
2018-09-14T06:20:35.011Z,14.70
2018-09-14T06:23:03.291Z,13.50
2018-09-14T06:25:31.545Z,13.75
2018-09-14T06:27:59.785Z,12.88
2018-09-14T06:30:28.138Z,12.73
2018-09-14T06:32:56.327Z,12.68
2018-09-14T06:35:24.555Z,12.75
2018-09-14T06:37:52.814Z,13.58
2018-09-14T06:40:21.059Z,12.98
2018-09-14T06:42:49.315Z,12.58
2018-09-14T06:45:18.571Z,12.05
2018-09-14T06:47:46.850Z,12.43
2018-09-14T06:50:15.087Z,12.68
2018-09-14T06:52:43.307Z,12.90
2018-09-14T06:55:11.573Z,12.60
2018-09-14T06:57:39.877Z,11.70
2018-09-14T07:00:08.175Z,11.83
2018-09-14T07:02:36.330Z,12.10
2018-09-14T07:05:04.633Z,11.93
2018-09-14T07:07:32.860Z,12.20
2018-09-14T07:10:01.119Z,12.00
2018-09-14T07:12:29.364Z,12.50
2018-09-14T07:14:57.587Z,12.63
2018-09-14T07:17:25.843Z,12.53
2018-09-14T07:19:54.106Z,12.70
2018-09-14T07:22:22.443Z,12.55
2018-09-14T07:24:50.865Z,12.03
2018-09-14T07:27:18.964Z,11.97
2018-09-14T07:29:47.195Z,11.28
2018-09-14T07:32:15.385Z,12.58
2018-09-14T07:34:43.603Z,11.83
2018-09-14T07:37:11.911Z,13.13
2018-09-14T07:39:40.158Z,12.37
2018-09-14T07:42:08.409Z,11.68
2018-09-14T07:44:36.623Z,12.35
2018-09-14T07:47:04.904Z,11.85
2018-09-14T07:49:33.403Z,12.45
2018-09-14T07:52:01.657Z,12.10
2018-09-14T07:54:29.894Z,12.30
2018-09-14T07:56:58.103Z,12.30
2018-09-14T07:59:26.335Z,12.95
2018-09-14T08:01:54.575Z,12.30
2018-09-14T08:04:22.835Z,12.80
2018-09-14T08:06:51.035Z,12.47
2018-09-14T08:09:19.269Z,11.78
2018-09-14T08:11:47.653Z,12.15
2018-09-14T08:14:15.867Z,11.73
2018-09-14T08:16:44.063Z,11.97
2018-09-14T08:19:12.278Z,12.40
2018-09-14T08:21:40.576Z,11.78
2018-09-14T08:24:08.822Z,12.43
2018-09-14T08:26:37.139Z,13.40
2018-09-14T08:29:05.391Z,12.70
2018-09-14T08:31:33.654Z,11.85
2018-09-14T08:34:01.916Z,12.25
2018-09-14T08:36:30.150Z,12.55
2018-09-14T08:38:58.395Z,11.95
2018-09-14T08:41:26.677Z,12.20
2018-09-14T08:43:54.983Z,11.90
2018-09-14T08:46:23.245Z,12.37
2018-09-14T08:48:51.478Z,11.93
2018-09-14T08:51:19.740Z,12.68
2018-09-14T08:53:47.944Z,12.53
2018-09-14T08:56:16.171Z,12.50
2018-09-14T08:58:51.017Z,12.63
2018-09-14T09:01:19.313Z,12.98
2018-09-14T09:03:47.692Z,12.50
2018-09-14T09:06:15.886Z,12.20
2018-09-14T09:08:44.188Z,13.03
2018-09-14T09:11:12.401Z,12.73
2018-09-14T09:13:40.672Z,12.55
2018-09-14T09:16:08.913Z,13.00
2018-09-14T09:18:37.171Z,12.55
2018-09-14T09:21:05.385Z,12.73
2018-09-14T09:23:33.714Z,12.20
2018-09-14T09:26:02.051Z,11.97
2018-09-14T09:28:30.305Z,13.05
2018-09-14T09:30:58.574Z,11.80
2018-09-14T09:33:26.895Z,12.03
2018-09-14T09:35:55.157Z,11.83
2018-09-14T09:38:23.405Z,11.57
2018-09-14T09:40:51.715Z,12.15
2018-09-14T09:43:20.026Z,12.82
2018-09-14T09:45:48.249Z,12.50
2018-09-14T09:48:16.468Z,11.60
2018-09-14T09:50:44.780Z,12.30
2018-09-14T09:53:13.022Z,12.53
2018-09-14T09:55:41.223Z,12.53
2018-09-14T09:58:09.438Z,12.25
2018-09-14T10:00:46.854Z,13.32
2018-09-14T10:03:17.123Z,13.10
2018-09-14T10:05:50.665Z,13.20
2018-09-14T10:08:18.927Z,12.80
2018-09-14T10:10:47.198Z,12.78
2018-09-14T10:13:15.422Z,12.78
2018-09-14T10:15:43.713Z,12.00
2018-09-14T10:18:11.965Z,12.65
2018-09-14T10:20:40.280Z,12.68
2018-09-14T10:23:08.490Z,12.50
2018-09-14T10:25:36.720Z,12.63
2018-09-14T10:28:04.935Z,12.15
2018-09-14T10:30:33.217Z,11.53
2018-09-14T10:33:01.474Z,11.73
2018-09-14T10:35:29.707Z,11.25
2018-09-14T10:37:57.939Z,12.28
2018-09-14T10:40:26.325Z,12.10
2018-09-14T10:42:54.543Z,12.70
2018-09-14T10:45:22.818Z,11.68
2018-09-14T10:47:50.931Z,12.55
2018-09-14T10:50:19.299Z,11.83
2018-09-14T10:52:47.684Z,12.35
2018-09-14T10:55:16.024Z,11.38
2018-09-14T10:57:44.251Z,11.70
2018-09-14T11:00:12.538Z,11.50
2018-09-14T11:02:40.731Z,12.10
2018-09-14T11:05:09.034Z,11.93
2018-09-14T11:07:37.256Z,11.48
2018-09-14T11:10:05.745Z,11.85
2018-09-14T11:12:34.000Z,11.35
2018-09-14T11:15:02.191Z,12.63
2018-09-14T11:17:30.473Z,11.97
2018-09-14T11:19:58.707Z,11.50
2018-09-14T11:22:26.985Z,11.55
2018-09-14T11:24:55.298Z,12.35
2018-09-14T11:27:23.433Z,11.63
2018-09-14T11:29:51.682Z,10.80
2018-09-14T11:32:20.099Z,10.55
2018-09-14T11:34:48.359Z,11.57
2018-09-14T11:37:16.672Z,11.22
2018-09-14T11:39:44.953Z,11.68
2018-09-14T11:42:13.255Z,11.15
2018-09-14T11:44:41.543Z,11.70
2018-09-14T11:47:09.924Z,11.53
2018-09-14T11:49:38.355Z,11.75
2018-09-14T11:52:06.890Z,12.90
2018-09-14T11:54:35.147Z,13.78
2018-09-14T11:57:03.399Z,14.58
2018-09-14T11:59:31.628Z,14.63
2018-09-14T12:01:59.974Z,15.70
2018-09-14T12:04:28.340Z,15.23
2018-09-14T12:06:56.653Z,14.90
2018-09-14T12:09:24.898Z,15.28
2018-09-14T12:11:53.215Z,15.55
2018-09-14T12:14:22.717Z,15.65
2018-09-14T12:16:52.124Z,16.15
2018-09-14T12:19:20.619Z,16.12
2018-09-14T12:21:48.987Z,16.80
2018-09-14T12:24:17.458Z,15.60
2018-09-14T12:26:45.684Z,15.48
2018-09-14T12:29:16.047Z,15.32
2018-09-14T12:31:44.293Z,15.18
2018-09-14T12:34:13.050Z,13.95
2018-09-14T12:36:42.240Z,13.50
2018-09-14T12:39:10.977Z,14.13
2018-09-14T12:41:39.989Z,14.38
2018-09-14T12:44:11.808Z,13.28
2018-09-14T12:46:40.009Z,13.25
2018-09-14T12:49:08.274Z,13.18
2018-09-14T12:51:36.514Z,12.58
2018-09-14T12:54:04.737Z,12.50
2018-09-14T12:56:32.997Z,12.50
2018-09-14T12:59:03.176Z,12.30
2018-09-14T13:01:32.605Z,11.75
2018-09-14T13:04:01.947Z,12.13
2018-09-14T13:06:30.147Z,11.95
2018-09-14T13:08:58.427Z,11.78
2018-09-14T13:11:26.945Z,11.75
2018-09-14T13:13:55.170Z,11.93
2018-09-14T13:16:23.392Z,11.85
2018-09-14T13:18:51.655Z,13.43
2018-09-14T13:21:19.914Z,13.07
2018-09-14T13:23:48.192Z,11.80
2018-09-14T13:26:17.150Z,12.05
2018-09-14T13:28:45.427Z,10.65
2018-09-14T13:31:13.696Z,10.28
2018-09-14T13:33:44.077Z,10.68
2018-09-14T13:36:12.234Z,12.28
2018-09-14T13:38:40.525Z,10.95
2018-09-14T13:41:08.791Z,10.53
2018-09-14T13:43:37.039Z,10.53
2018-09-14T13:46:05.318Z,10.70
2018-09-14T13:48:33.587Z,10.48
2018-09-14T13:51:01.938Z,11.38
2018-09-14T13:53:30.175Z,11.28
2018-09-14T13:55:58.552Z,12.10
2018-09-14T13:58:26.845Z,11.80
2018-09-14T14:00:55.111Z,12.25
2018-09-14T14:03:23.389Z,11.80
2018-09-14T14:05:51.634Z,11.73
2018-09-14T14:08:19.900Z,10.78
2018-09-14T14:10:48.183Z,10.72
2018-09-14T14:13:16.435Z,10.60
2018-09-14T14:15:44.675Z,10.45
2018-09-14T14:18:12.894Z,10.00
2018-09-14T14:20:41.203Z,9.65
2018-09-14T14:23:09.485Z,9.40
2018-09-14T14:25:37.717Z,9.20
2018-09-14T14:28:06.023Z,9.80
2018-09-14T14:30:34.363Z,9.80
2018-09-14T14:33:02.628Z,9.45
2018-09-14T14:35:30.855Z,9.10
2018-09-14T14:37:59.193Z,9.55
2018-09-14T14:40:27.467Z,8.83
2018-09-14T14:42:55.699Z,8.78
2018-09-14T14:45:23.934Z,8.65
2018-09-14T14:47:52.209Z,8.90
2018-09-14T14:52:43.086Z,8.55
2018-09-14T14:55:11.347Z,8.90
2018-09-14T14:57:39.610Z,8.15
2018-09-14T15:00:07.925Z,8.40
2018-09-14T15:02:36.189Z,7.95
2018-09-14T15:05:04.486Z,7.58
2018-09-14T15:07:32.888Z,8.40
2018-09-14T15:10:01.191Z,8.63
2018-09-14T15:12:29.490Z,9.28
2018-09-14T15:14:57.674Z,10.53
2018-09-14T15:17:25.992Z,10.25
2018-09-14T15:19:54.265Z,10.45
2018-09-14T15:22:22.526Z,10.05
2018-09-14T15:24:50.779Z,10.85
2018-09-14T15:27:19.008Z,9.80
2018-09-14T15:29:47.297Z,10.58
2018-09-14T15:32:15.593Z,10.58
2018-09-14T15:34:43.803Z,10.65
2018-09-14T15:37:12.125Z,9.88
2018-09-14T15:39:40.385Z,9.73
2018-09-14T15:42:08.641Z,9.08
2018-09-14T15:44:36.931Z,9.35
2018-09-14T15:47:05.221Z,8.95
2018-09-14T15:49:33.468Z,8.93
2018-09-14T15:52:01.674Z,9.40
2018-09-14T15:54:29.956Z,9.10
2018-09-14T15:56:58.242Z,8.90
2018-09-14T15:59:26.480Z,8.90
2018-09-14T16:01:54.873Z,8.98
2018-09-14T16:04:23.185Z,8.20
2018-09-14T16:06:51.492Z,8.85
2018-09-14T16:09:19.777Z,9.15
2018-09-14T16:11:48.081Z,9.08
2018-09-14T16:14:16.384Z,8.55
2018-09-14T16:16:44.619Z,9.65
2018-09-14T16:19:12.907Z,9.18
2018-09-14T16:21:41.209Z,9.53
2018-09-14T16:24:09.526Z,8.53
2018-09-14T16:26:37.747Z,9.03
2018-09-14T16:29:06.012Z,9.13
2018-09-14T16:31:34.667Z,8.78
2018-09-14T16:34:02.958Z,8.73
2018-09-14T16:36:31.279Z,8.60
2018-09-14T16:38:59.618Z,8.70
2018-09-14T16:41:27.901Z,8.75
2018-09-14T16:43:56.160Z,8.58
2018-09-14T16:46:24.426Z,8.83
2018-09-14T16:48:52.653Z,9.38
2018-09-14T16:51:20.910Z,9.08
2018-09-14T16:53:49.150Z,9.55
2018-09-14T16:56:17.383Z,9.20
2018-09-14T16:58:45.586Z,9.00
2018-09-14T17:01:13.850Z,8.95
2018-09-14T17:03:42.236Z,9.00
2018-09-14T17:06:10.526Z,8.78
2018-09-14T17:08:38.837Z,9.35
2018-09-14T17:11:07.121Z,8.95
2018-09-14T17:13:35.308Z,9.45
2018-09-14T17:16:03.552Z,8.75
2018-09-14T17:18:31.837Z,8.30
2018-09-14T17:21:00.102Z,8.40
2018-09-14T17:23:28.357Z,8.43
2018-09-14T17:25:56.570Z,8.58
2018-09-14T17:28:24.982Z,8.38
2018-09-14T17:30:53.279Z,8.45
2018-09-14T17:33:21.623Z,7.95
2018-09-14T17:35:49.845Z,8.28
2018-09-14T17:38:18.117Z,7.92
2018-09-14T17:40:46.389Z,7.90
2018-09-14T17:43:14.630Z,7.75
2018-09-14T17:45:42.894Z,7.50
2018-09-14T17:48:11.145Z,8.10
2018-09-14T17:50:39.406Z,7.55
2018-09-14T17:53:07.628Z,7.92
2018-09-14T17:55:35.842Z,7.90
2018-09-14T17:58:04.085Z,8.15
2018-09-14T18:00:32.350Z,8.75
2018-09-14T18:03:00.596Z,7.08
2018-09-14T18:05:28.856Z,7.67
2018-09-14T18:07:57.072Z,7.58
2018-09-14T18:10:25.330Z,7.50
2018-09-14T18:12:53.624Z,7.40
2018-09-14T18:15:21.875Z,7.30
2018-09-14T18:17:50.166Z,7.85
2018-09-14T18:20:18.414Z,7.65
2018-09-14T18:22:46.685Z,7.00
2018-09-14T18:25:15.523Z,7.70
2018-09-14T18:27:43.795Z,7.25
2018-09-14T18:30:12.014Z,7.20
2018-09-14T18:32:40.249Z,7.30
2018-09-14T18:35:08.483Z,6.97
2018-09-14T18:37:36.769Z,7.10
2018-09-14T18:40:05.146Z,7.28
2018-09-14T18:42:33.454Z,7.45
2018-09-14T18:45:01.710Z,7.28
2018-09-14T18:47:30.019Z,6.50
2018-09-14T18:49:58.362Z,7.72
2018-09-14T18:52:26.692Z,7.37
2018-09-14T18:54:55.087Z,7.25
2018-09-14T18:57:23.392Z,7.75
2018-09-14T18:59:51.676Z,7.90
2018-09-14T19:02:19.890Z,7.45
2018-09-14T19:04:48.177Z,7.35
2018-09-14T19:07:16.473Z,7.53
2018-09-14T19:09:44.745Z,7.25
2018-09-14T19:12:13.081Z,7.37
2018-09-14T19:14:41.442Z,7.35
2018-09-14T19:17:09.763Z,7.25
2018-09-14T19:19:38.055Z,7.53
2018-09-14T19:22:06.433Z,6.92
2018-09-14T19:24:34.767Z,7.30
2018-09-14T19:27:03.065Z,7.35
2018-09-14T19:29:31.333Z,7.28
2018-09-14T19:31:59.604Z,6.80
2018-09-14T19:34:27.912Z,7.12
2018-09-14T19:36:56.177Z,7.12
2018-09-14T19:39:24.451Z,7.15
2018-09-14T19:41:52.661Z,7.10
2018-09-14T19:44:21.012Z,7.33
2018-09-14T19:46:49.275Z,7.08
2018-09-14T19:49:17.601Z,6.92
2018-09-14T19:51:45.895Z,6.87
2018-09-14T19:54:14.189Z,7.28
2018-09-14T19:56:42.467Z,6.72
2018-09-14T19:59:10.737Z,7.12
2018-09-14T20:01:39.018Z,6.87
2018-09-14T20:04:07.243Z,6.67
2018-09-14T20:06:35.522Z,7.20
2018-09-14T20:09:05.030Z,7.25
2018-09-14T20:11:33.288Z,8.00
2018-09-14T20:14:01.552Z,7.28
2018-09-14T20:16:29.852Z,7.90
2018-09-14T20:18:58.143Z,7.12
2018-09-14T20:21:26.486Z,7.62
2018-09-14T20:23:54.806Z,7.15
2018-09-14T20:26:23.087Z,6.85
2018-09-14T20:28:51.381Z,7.42
2018-09-14T20:31:19.613Z,7.10
2018-09-14T20:33:47.874Z,7.83
2018-09-14T20:36:16.119Z,7.62
2018-09-14T20:38:44.361Z,7.45
2018-09-14T20:41:12.692Z,7.05
2018-09-14T20:43:41.097Z,7.65
2018-09-14T20:46:09.317Z,7.20
2018-09-14T20:48:37.657Z,7.40
2018-09-14T20:51:05.923Z,7.20
2018-09-14T20:53:34.213Z,7.17
2018-09-14T20:56:02.487Z,7.50
2018-09-14T20:58:30.708Z,6.85
2018-09-14T21:00:58.910Z,7.03
2018-09-14T21:03:27.136Z,7.00
2018-09-14T21:05:55.484Z,7.33
2018-09-14T21:08:23.701Z,6.83
2018-09-14T21:10:51.991Z,6.95
2018-09-14T21:13:20.227Z,7.22
2018-09-14T21:15:48.464Z,6.95
2018-09-14T21:18:16.680Z,7.15
2018-09-14T21:20:44.925Z,6.58
2018-09-14T21:23:13.185Z,7.00
2018-09-14T21:25:41.452Z,6.75
2018-09-14T21:28:09.712Z,6.75
2018-09-14T21:30:37.991Z,6.37
2018-09-14T21:33:06.313Z,6.92
2018-09-14T21:35:34.580Z,6.53
2018-09-14T21:38:02.856Z,6.42
2018-09-14T21:40:31.233Z,6.78
2018-09-14T21:42:59.448Z,6.72
2018-09-14T21:45:27.694Z,6.55
2018-09-14T21:47:55.975Z,6.60
2018-09-14T21:50:24.215Z,6.35
2018-09-14T21:52:52.480Z,7.03
2018-09-14T21:55:20.809Z,6.83
2018-09-14T21:57:49.095Z,6.42
2018-09-14T22:00:22.911Z,6.70
2018-09-14T22:02:51.230Z,6.78
2018-09-14T22:05:19.519Z,6.47
2018-09-14T22:07:47.832Z,6.60
2018-09-14T22:10:16.112Z,6.58
2018-09-14T22:12:44.356Z,6.92
2018-09-14T22:15:12.611Z,6.97
2018-09-14T22:17:40.997Z,6.80
2018-09-14T22:20:09.339Z,6.12
2018-09-14T22:22:37.582Z,6.25
2018-09-14T22:25:05.947Z,6.10
2018-09-14T22:27:34.267Z,6.75
2018-09-14T22:30:02.837Z,6.92
2018-09-14T22:32:31.132Z,6.53
2018-09-14T22:34:59.434Z,7.12
2018-09-14T22:37:27.699Z,5.85
2018-09-14T22:39:56.060Z,6.75
2018-09-14T22:42:24.313Z,7.00
2018-09-14T22:44:52.539Z,6.40
2018-09-14T22:47:20.763Z,6.47
2018-09-14T22:49:48.975Z,6.78
2018-09-14T22:52:17.211Z,6.75
2018-09-14T22:54:45.435Z,6.78
2018-09-14T22:57:13.704Z,6.35
2018-09-14T22:59:41.959Z,6.22
2018-09-14T23:02:10.142Z,6.90
2018-09-14T23:04:38.429Z,6.83
2018-09-14T23:07:06.795Z,6.17
2018-09-14T23:09:35.103Z,6.33
2018-09-14T23:12:03.509Z,6.80
2018-09-14T23:14:31.738Z,6.47
2018-09-14T23:16:59.974Z,5.85
2018-09-14T23:19:28.273Z,6.60
2018-09-14T23:21:56.542Z,6.20
2018-09-14T23:24:25.480Z,6.60
2018-09-14T23:26:53.770Z,6.42
2018-09-14T23:29:22.022Z,6.33
2018-09-14T23:31:50.282Z,6.12
2018-09-14T23:34:18.546Z,5.85
2018-09-14T23:36:46.825Z,6.05
2018-09-14T23:39:15.102Z,6.00
2018-09-14T23:41:43.321Z,6.35
2018-09-14T23:44:11.533Z,6.55
2018-09-14T23:46:39.773Z,6.08
2018-09-14T23:49:08.185Z,6.97
2018-09-14T23:51:36.429Z,6.42
2018-09-14T23:54:04.654Z,6.05
2018-09-14T23:56:32.906Z,5.97
2018-09-14T23:59:01.183Z,6.17
